Poughkeepsie, NY

12:12 AM EDT on September 21, 2014 (GMT -0400)
Arlington | Change Station
CLOSE
Current Station
Personal Weather Station
Location: Poughkeepsie, NY
Elevation: 220 ft
Nearby Weather Stations

Elev 220 ft 41.71 °N, 73.90 °W | Updated 2 minutes ago

Clear
Clear
63.7 °F
Feels Like 63.7 °F
N
0.0
Wind Variable Wind from SW
Gusts 1.6 mph

Today
High -- | Low -- °F
--% Chance of Precip.
Yesterday
High -- | Low -- °F
Precip. -- in
6:42 AM 6:54 PM
Waning Crescent, 9% visible
Pressure 30.05 in
Visibility 10.0 miles
Clouds Clear
Dew Point 63 °F
Humidity 98%
Rainfall 0.00 in
Snow Depth Not available.
UV 0.0 out of 12
Pollen 2.70 out of 12
PM2.5 Good
Flu Activity Not available.
METAR KPOU 210353Z AUTO 15003KT 10SM CLR 16/15 A3006 RMK AO2 SLP176 T01610150

More Conditions Fewer Conditions

Pressure 30.05 in
Visibility 10.0 miles
Clouds Clear
Dew Point 63 °F
Humidity 98%
Rainfall 0.00 in
Snow Depth Not available.
UV 0.0 out of 12
Pollen 2.70 out of 12
PM2.5 Good
Flu Activity Not available.
METAR KPOU 210353Z AUTO 15003KT 10SM CLR 16/15 A3006 RMK AO2 SLP176 T01610150

More Conditions Fewer Conditions

10-Day Weather Forecast

Almanac

Astronomy

Sep. 21, 2014 Rise Set
Actual Time 6:42 AM EDT 6:54 PM EDT
Civil Twilight 6:14 AM EDT 7:22 PM EDT
Nautical Twilight 5:41 AM EDT 7:54 PM EDT
Astronomical Twilight 5:08 AM EDT 8:28 PM EDT
Moon 4:11 AM EDT 5:30 PM EDT
Length of Visible Light 13h 08m
Length of Day
12h 12m
Tomorrow will be 2m 46s shorter.
Waning Crescent, 9% of the Moon is Illuminated
Today
Waning Crescent
Sep 24
New
Oct 1
First Quarter
Oct 8
Full
Oct 15
Last Quarter

Yesterday's Extremes

State Highs State Lows

Community

WunderPhotos

Upload Photos

1,755,081 photos uploaded!

Nearby

Air Quality

  Air Quality AQ Index Pollutant
Yesterday Good
OZONE
Yesterday Good
PM2.5
Current Good
PM2.5
Saturday Good
OZONE
Saturday Good
PM2.5
Sunday Good
OZONE
Sunday Good
PM2.5
Monday Good
OZONE
Monday Good
PM2.5

Snow Depth

Station Depth Elevation
No new snow has been reported.

Earthquake Activity

City Distance Mag. Time & Date
No recent earthquake activity has been reported nearby.
Minimum magnitude displayed is 2.5.

Coastal Water Temperatures

Place Temperature
No Stations Reporting

Nearby Weather Stations